sensor_id;sensor_type;location;lat;lon;timestamp;P1;P2;P0
85896;PMS5003;76442;52.412;16.940;2024-03-08T00:10:09;70.50655041242563;53.09752561923411;21.761280991489393
85896;PMS5003;76442;52.412;16.940;2024-03-08T00:30:10;63.06841304536394;53.56495354537759;26.782476772688796
85896;PMS5003;76442;52.412;16.940;2024-03-08T00:45:09;72.84242265077502;54.63181698808126;22.546464153811314
85896;PMS5003;76442;52.412;16.940;2024-03-08T01:00:09;60.40693790139486;47.64490876729736;20.41924661455601
85896;PMS5003;76442;52.412;16.940;2024-03-08T01:15:09;76.57214366302973;45.438414920918746;23.560659588624535
85896;PMS5003;76442;52.412;16.940;2024-03-08T01:30:09;51.64762396717454;47.41421216658646;20.32037664282277
85896;PMS5003;76442;52.412;16.940;2024-03-08T01:45:09;53.20177495043652;42.90465721809397;17.16186288723759
85896;PMS5003;76442;52.412;16.940;2024-03-08T02:00:09;73.02833471347257;54.34666769374703;21.229167067869934
85896;PMS5003;76442;52.412;16.940;2024-03-08T02:15:09;45.92131233994251;38.267760283285426;15.307104113314171
85896;PMS5003;76442;52.412;16.940;2024-03-08T02:30:09;58.11872025312345;42.73435312729666;18.803115376010528
85896;PMS5003;76442;52.412;16.940;2024-03-08T02:45:09;37.48019246814481;33.31572663835094;17.490756485134245
85896;PMS5003;76442;52.412;16.940;2024-03-08T03:05:10;56.51922503986604;47.50891380162653;20.477980086907987
85896;PMS5003;76442;52.412;16.940;2024-03-08T03:20:10;41.82453517131556;34.29611884047876;20.07577688223147
85896;PMS5003;76442;52.412;16.940;2024-03-08T03:35:10;42.38423123329172;33.24253430062096;17.452330507826
85896;PMS5003;76442;52.412;16.940;2024-03-08T03:50:10;44.302526997063595;34.27176616753977;15.882037980079403
85896;PMS5003;76442;52.412;16.940;2024-03-08T04:05:10;42.22625833871923;30.634736441815907;17.387282845354974
85896;PMS5003;76442;52.412;16.940;2024-03-08T04:20:09;48.775867695996084;41.33548109830176;19.841030927184846
85896;PMS5003;76442;52.412;16.940;2024-03-08T04:35:09;29.065704256074167;24.913460790920716;15.778525167583119
85896;PMS5003;76442;52.412;16.940;2024-03-08T04:55:09;33.29750761681883;28.302881474296;18.313629189250353
85896;PMS5003;76442;52.412;16.940;2024-03-08T05:10:09;44.65932943190404;37.21610785992003;16.54049238218668
85896;PMS5003;76442;52.412;16.940;2024-03-08T05:25:09;46.53095524410485;36.56003626322524;17.44910821653932
85896;PMS5003;76442;52.412;16.940;2024-03-08T05:40:09;46.74331815295984;36.726892834468444;18.363446417234222
85896;PMS5003;76442;52.412;16.940;2024-03-08T05:55:09;45.38914664894489;40.25075268868697;20.55357584103165
85896;PMS5003;76442;52.412;16.940;2024-03-08T06:20:09;62.41117148977736;57.753621378599945;31.671340756006423
85896;PMS5003;76442;52.412;16.940;2024-03-08T06:35:09;88.61187882615447;73.20111729117107;37.563731241522
85896;PMS5003;76442;52.412;16.940;2024-03-08T06:50:09;73.21722566050624;63.58338017886068;30.828305541265784
85896;PMS5003;76442;52.412;16.940;2024-03-08T07:05:09;72.10676561935641;61.38819235161424;26.30922529354896
85896;PMS5003;76442;52.412;16.940;2024-03-08T07:20:09;79.85742654187084;73.94206161284337;33.520401264488996
85896;PMS5003;76442;52.412;16.940;2024-03-08T07:50:10;95.27818378529433;84.24597303120763;41.12005826523229
85896;PMS5003;76442;52.412;16.940;2024-03-08T08:10:09;58.51235172360678;58.51235172360678;28.211312438167553
85896;PMS5003;76442;52.412;16.940;2024-03-08T08:30:09;53.58007380155949;53.58007380155949;29.416511106738543
85896;PMS5003;76442;52.412;16.940;2024-03-08T08:45:09;52.82742102745227;49.657775765805134;21.13096841098091
85896;PMS5003;76442;52.412;16.940;2024-03-08T09:00:09;62.43600942553361;58.20305963397201;30.688885988821607
85896;PMS5003;76442;52.412;16.940;2024-03-08T09:35:09;48.076777774391815;42.734913577237165;20.299083949187654
85896;PMS5003;76442;52.412;16.940;2024-03-08T09:50:09;54.6695104628667;41.80609623630983;18.223170154288898
85896;PMS5003;76442;52.412;16.940;2024-03-08T10:05:09;48.35674668814097;37.6108029796652;20.417293046103964
85896;PMS5003;76442;52.412;16.940;2024-03-08T10:20:09;30.299743966688116;30.299743966688116;16.232005696440062
85896;PMS5003;76442;52.412;16.940;2024-03-08T10:35:09;30.32653129704513;30.32653129704513;14.080175245056667
85896;PMS5003;76442;52.412;16.940;2024-03-08T10:50:09;32.313758058111425;28.00525698369657;14.002628491848284
85896;PMS5003;76442;52.412;16.940;2024-03-08T11:15:09;48.483008980300255;39.86380738380243;17.238403192995648
85896;PMS5003;76442;52.412;16.940;2024-03-08T11:30:09;38.63220467733737;34.33973749096655;18.242985542075978
85896;PMS5003;76442;52.412;16.940;2024-03-08T11:45:09;31.1678506683808;31.1678506683808;13.971795127205187
85896;PMS5003;76442;52.412;16.940;2024-03-08T12:00:09;35.65576556968038;31.333854591537307;14.046210678965
85896;PMS5003;76442;52.412;16.940;2024-03-08T12:15:09;45.49941271545451;43.33277401471859;17.333109605887433
85896;PMS5003;76442;52.412;16.940;2024-03-08T12:30:09;52.02309755216467;27.0953633084191;9.754330791030876
85896;PMS5003;76442;52.412;16.940;2024-03-08T12:45:09;47.433198281506805;39.88700764581254;16.17040850505914
85896;PMS5003;76442;52.412;16.940;2024-03-08T13:00:09;29.257853894155804;29.257853894155804;11.919866401322734
85896;PMS5003;76442;52.412;16.940;2024-03-08T13:15:09;27.01000994164718;27.01000994164718;14.045205169656535
85896;PMS5003;76442;52.412;16.940;2024-03-08T13:40:09;26.216364626040605;26.216364626040605;12.015833786935277
85896;PMS5003;76442;52.412;16.940;2024-03-08T13:55:09;44.735241441831356;44.735241441831356;20.73096554621453
85896;PMS5003;76442;52.412;16.940;2024-03-08T14:10:09;28.61967514846489;28.61967514846489;12.108324101273608
85896;PMS5003;76442;52.412;16.940;2024-03-08T14:25:09;32.90374812873893;28.51658171157374;12.064707647204274
85896;PMS5003;76442;52.412;16.940;2024-03-08T14:40:09;31.84312516145396;31.84312516145396;18.666659577404044
85896;PMS5003;76442;52.412;16.940;2024-03-08T14:55:09;54.10243094458336;43.06111850691329;22.082624875340148
85896;PMS5003;76442;52.412;16.940;2024-03-08T15:15:09;25.280970225773007;25.280970225773007;14.289244040654308
85896;PMS5003;76442;52.412;16.940;2024-03-08T18:50:09;93.6136217067002;85.29241088832686;43.686356796460096
85896;PMS5003;76442;52.412;16.940;2024-03-08T19:05:09;85.18364747539007;82.06717256775384;39.47534883005881
85896;PMS5003;76442;52.412;16.940;2024-03-08T19:35:10;91.91125347966353;82.72012813169718;43.913154440283684
85896;PMS5003;76442;52.412;16.940;2024-03-08T19:50:10;72.13329693625252;70.07234559521675;29.883794445018903
85896;PMS5003;76442;52.412;16.940;2024-03-08T20:10:09;88.83137023944583;78.73689634859971;29.273974283453743
85896;PMS5003;76442;52.412;16.940;2024-03-08T20:35:09;92.73745170035453;92.73745170035453;37.706436405638655
85896;PMS5003;76442;52.412;16.940;2024-03-08T21:30:09;99.90007258690792;77.92205661778819;34.96502540541778
85896;PMS5003;76442;52.412;16.940;2024-03-08T21:45:09;73.37557575855519;67.34470651812599;31.159491075550832
85896;PMS5003;76442;52.412;16.940;2024-03-08T22:00:09;73.93736982039216;62.10739064912942;25.63162153773595
85896;PMS5003;76442;52.412;16.940;2024-03-08T22:20:10;65.66936793591611;58.70443497301592;21.889789311972038
85896;PMS5003;76442;52.412;16.940;2024-03-08T22:50:09;62.75179546397644;56.77543399121678;23.905445891038646
